createdAt,value
2018-12-07T00:01:36.480Z,100433.00
2018-12-07T00:04:05.553Z,100432.00
2018-12-07T00:06:34.759Z,100419.00
2018-12-07T00:09:05.195Z,100416.00
2018-12-07T00:11:34.557Z,100424.00
2018-12-07T00:14:03.932Z,100424.00
2018-12-07T00:16:33.019Z,100423.00
2018-12-07T00:19:02.230Z,100420.00
2018-12-07T00:21:31.488Z,100415.00
2018-12-07T00:24:00.728Z,100406.00
2018-12-07T00:26:30.209Z,100400.00
2018-12-07T00:28:59.297Z,100392.00
2018-12-07T00:31:28.838Z,100386.00
2018-12-07T00:33:58.799Z,100392.00
2018-12-07T00:36:27.831Z,100391.00
2018-12-07T00:38:56.934Z,100398.00
2018-12-07T00:41:26.008Z,100390.00
2018-12-07T00:43:55.105Z,100399.00
2018-12-07T00:46:24.620Z,100388.00
2018-12-07T00:48:53.666Z,100388.00
2018-12-07T00:51:22.708Z,100382.00
2018-12-07T00:53:51.871Z,100387.00
2018-12-07T00:56:20.999Z,100382.00
2018-12-07T00:58:50.132Z,100377.00
2018-12-07T01:01:19.320Z,100381.00
2018-12-07T01:03:48.340Z,100384.00
2018-12-07T01:06:17.850Z,100375.00
2018-12-07T01:08:47.144Z,100370.00
2018-12-07T01:11:16.254Z,100355.00
2018-12-07T01:13:45.371Z,100353.00
2018-12-07T01:16:14.521Z,100348.00
2018-12-07T01:18:43.751Z,100369.00
2018-12-07T01:21:13.070Z,100366.00
2018-12-07T01:23:42.259Z,100347.00
2018-12-07T01:26:11.450Z,100352.00
2018-12-07T01:28:40.507Z,100350.00
2018-12-07T01:31:09.705Z,100344.00
2018-12-07T01:33:38.795Z,100338.00
2018-12-07T01:36:08.013Z,100335.00
2018-12-07T01:38:37.344Z,100341.00
2018-12-07T01:41:06.374Z,100326.00
2018-12-07T01:43:35.562Z,100326.00
2018-12-07T01:46:04.816Z,100326.00
2018-12-07T01:48:33.964Z,100332.00
2018-12-07T01:51:03.048Z,100320.00
2018-12-07T01:53:32.136Z,100315.00
2018-12-07T01:56:01.264Z,100314.00
2018-12-07T01:58:30.365Z,100308.00
2018-12-07T02:00:59.568Z,100309.00
2018-12-07T02:03:30.258Z,100319.00
2018-12-07T02:05:59.424Z,100310.00
2018-12-07T02:08:28.562Z,100307.00
2018-12-07T02:10:57.770Z,100297.00
2018-12-07T02:13:26.928Z,100290.00
2018-12-07T02:15:56.128Z,100295.00
2018-12-07T02:18:25.227Z,100294.00
2018-12-07T02:20:54.410Z,100288.00
2018-12-07T02:23:23.476Z,100280.00
2018-12-07T02:25:52.726Z,100293.00
2018-12-07T02:28:21.818Z,100285.00
2018-12-07T02:30:50.869Z,100278.00
2018-12-07T02:33:20.122Z,100273.00
2018-12-07T02:35:49.403Z,100275.00
2018-12-07T02:38:18.521Z,100275.00
2018-12-07T02:40:47.665Z,100265.00
2018-12-07T02:43:16.761Z,100272.00
2018-12-07T02:45:45.829Z,100264.00
2018-12-07T02:48:15.204Z,100259.00
2018-12-07T02:50:44.391Z,100258.00
2018-12-07T02:53:20.184Z,100264.00
2018-12-07T02:55:49.446Z,100258.00
2018-12-07T02:58:18.588Z,100253.00
2018-12-07T03:00:47.722Z,100242.00
2018-12-07T03:03:16.822Z,100241.00
2018-12-07T03:05:45.978Z,100241.00
2018-12-07T03:08:15.174Z,100246.00
2018-12-07T03:10:44.350Z,100228.00
2018-12-07T03:13:13.419Z,100238.00
2018-12-07T03:15:42.507Z,100238.00
2018-12-07T03:18:22.758Z,100242.00
2018-12-07T03:20:51.872Z,100237.00
2018-12-07T03:23:20.976Z,100238.00
2018-12-07T03:25:50.159Z,100235.00
2018-12-07T03:28:19.370Z,100225.00
2018-12-07T03:30:48.645Z,100222.00
2018-12-07T03:33:17.707Z,100217.00
2018-12-07T03:35:47.028Z,100203.00
2018-12-07T03:38:16.223Z,100210.00
2018-12-07T03:40:45.294Z,100202.00
2018-12-07T03:43:14.413Z,100198.00
2018-12-07T03:45:43.636Z,100205.00
2018-12-07T03:48:12.772Z,100204.00
2018-12-07T03:50:42.086Z,100211.00
2018-12-07T03:53:11.199Z,100205.00
2018-12-07T03:55:40.484Z,100207.00
2018-12-07T03:58:09.579Z,100205.00
2018-12-07T04:00:38.752Z,100198.00
2018-12-07T04:03:07.932Z,100197.00
2018-12-07T04:05:37.050Z,100203.00
2018-12-07T04:08:06.253Z,100195.00
2018-12-07T04:10:35.348Z,100207.00
2018-12-07T04:13:04.584Z,100206.00
2018-12-07T04:15:33.829Z,100203.00
2018-12-07T04:18:03.019Z,100202.00
2018-12-07T04:20:32.192Z,100192.00
2018-12-07T04:23:01.308Z,100185.00
2018-12-07T04:25:30.441Z,100183.00
2018-12-07T04:27:59.514Z,100183.00
2018-12-07T04:30:29.169Z,100182.00
2018-12-07T04:32:58.338Z,100182.00
2018-12-07T04:35:27.589Z,100174.00
2018-12-07T04:37:56.764Z,100177.00
2018-12-07T04:40:25.882Z,100180.00
2018-12-07T04:42:55.161Z,100174.00
2018-12-07T04:45:24.469Z,100166.00
2018-12-07T04:47:53.972Z,100179.00
2018-12-07T04:50:23.017Z,100173.00
2018-12-07T04:52:52.139Z,100183.00
2018-12-07T04:55:21.480Z,100163.00
2018-12-07T04:57:50.877Z,100169.00
2018-12-07T05:00:20.122Z,100166.00
2018-12-07T05:02:49.395Z,100169.00
2018-12-07T05:05:18.562Z,100169.00
2018-12-07T05:07:48.663Z,100162.00
2018-12-07T05:10:17.764Z,100159.00
2018-12-07T05:12:46.928Z,100163.00
2018-12-07T05:15:16.009Z,100164.00
2018-12-07T05:17:45.332Z,100156.00
2018-12-07T05:20:14.673Z,100162.00
2018-12-07T05:22:43.829Z,100166.00
2018-12-07T05:25:12.928Z,100161.00
2018-12-07T05:27:42.080Z,100163.00
2018-12-07T05:30:11.228Z,100161.00
2018-12-07T05:32:40.370Z,100148.00
2018-12-07T05:35:09.579Z,100149.00
2018-12-07T05:37:38.834Z,100153.00
2018-12-07T05:40:08.159Z,100142.00
2018-12-07T05:42:37.544Z,100150.00
2018-12-07T05:45:06.637Z,100143.00
2018-12-07T05:47:37.434Z,100140.00
2018-12-07T05:50:07.005Z,100145.00
2018-12-07T05:52:36.228Z,100154.00
2018-12-07T05:55:05.998Z,100142.00
2018-12-07T05:57:35.281Z,100133.00
2018-12-07T06:00:05.840Z,100128.00
2018-12-07T06:02:34.968Z,100136.00
2018-12-07T06:05:05.396Z,100124.00
2018-12-07T06:07:34.494Z,100129.00
2018-12-07T06:10:04.695Z,100124.00
2018-12-07T06:12:34.206Z,100124.00
2018-12-07T06:15:03.453Z,100117.00
2018-12-07T06:17:32.497Z,100123.00
2018-12-07T06:20:01.767Z,100121.00
2018-12-07T06:22:31.053Z,100126.00
2018-12-07T06:25:00.399Z,100119.00
2018-12-07T06:27:29.501Z,100109.00
2018-12-07T06:29:58.692Z,100115.00
2018-12-07T06:32:27.827Z,100100.00
2018-12-07T06:34:56.924Z,100099.00
2018-12-07T06:37:26.091Z,100095.00
2018-12-07T06:39:55.249Z,100096.00
2018-12-07T06:42:24.475Z,100092.00
2018-12-07T06:44:53.463Z,100090.00
2018-12-07T06:47:22.579Z,100096.00
2018-12-07T06:49:51.680Z,100097.00
2018-12-07T06:52:20.841Z,100090.00
2018-12-07T06:54:49.965Z,100080.00
2018-12-07T06:57:19.236Z,100087.00
2018-12-07T06:59:48.304Z,100080.00
2018-12-07T07:02:17.461Z,100081.00
2018-12-07T07:04:46.519Z,100082.00
2018-12-07T07:07:15.777Z,100082.00
2018-12-07T07:09:44.939Z,100090.00
2018-12-07T07:12:14.197Z,100064.00
2018-12-07T07:14:43.410Z,100059.00
2018-12-07T07:17:12.869Z,100049.00
2018-12-07T07:19:42.077Z,100053.00
2018-12-07T07:22:11.188Z,100045.00
2018-12-07T07:24:40.539Z,100050.00
2018-12-07T07:27:09.845Z,100040.00
2018-12-07T07:29:39.123Z,100048.00
2018-12-07T07:32:08.341Z,100050.00
2018-12-07T07:34:37.739Z,100037.00
2018-12-07T07:37:08.253Z,100048.00
2018-12-07T07:39:37.692Z,100045.00
2018-12-07T07:42:06.912Z,100037.00
2018-12-07T07:44:36.228Z,100042.00
2018-12-07T07:47:05.814Z,100032.00
2018-12-07T07:49:35.099Z,100034.00
2018-12-07T07:52:04.516Z,100014.00
2018-12-07T07:54:34.195Z,100014.00
2018-12-07T07:57:04.198Z,100004.00
2018-12-07T07:59:34.634Z,100016.00
2018-12-07T08:02:04.149Z,100006.00
2018-12-07T08:04:33.674Z,99999.00
2018-12-07T08:07:03.319Z,99995.00
2018-12-07T08:09:32.909Z,99992.00
2018-12-07T08:12:02.753Z,100000.00
2018-12-07T08:14:32.552Z,99998.00
2018-12-07T08:17:01.995Z,99994.00
2018-12-07T08:19:31.381Z,99986.00
2018-12-07T08:22:00.684Z,99987.00
2018-12-07T08:24:30.136Z,99978.00
2018-12-07T08:26:59.336Z,99981.00
2018-12-07T08:29:28.862Z,99979.00
2018-12-07T08:31:58.359Z,99975.00
2018-12-07T08:34:27.604Z,99974.00
2018-12-07T08:36:57.124Z,99966.00
2018-12-07T08:39:26.360Z,99964.00
2018-12-07T08:41:55.737Z,99962.00
2018-12-07T08:44:25.166Z,99967.00
2018-12-07T08:46:54.838Z,99959.00
2018-12-07T08:49:29.332Z,99958.00
2018-12-07T08:51:58.894Z,99952.00
2018-12-07T08:54:28.324Z,99948.00
2018-12-07T08:56:57.789Z,99952.00
2018-12-07T08:59:27.126Z,99945.00
2018-12-07T09:01:56.524Z,99934.00
2018-12-07T09:04:25.806Z,99933.00
2018-12-07T09:06:55.301Z,99933.00
2018-12-07T09:09:25.047Z,99937.00
2018-12-07T09:11:54.576Z,99925.00
2018-12-07T09:14:24.066Z,99923.00
2018-12-07T09:16:53.421Z,99927.00
2018-12-07T09:19:22.984Z,99932.00
2018-12-07T09:21:52.424Z,99921.00
2018-12-07T09:24:22.282Z,99918.00
2018-12-07T09:26:51.752Z,99907.00
2018-12-07T09:29:20.976Z,99908.00
2018-12-07T09:31:50.723Z,99893.00
2018-12-07T09:34:20.212Z,99905.00
2018-12-07T09:36:49.671Z,99893.00
2018-12-07T09:39:19.259Z,99887.00
2018-12-07T09:41:48.647Z,99880.00
2018-12-07T09:44:18.174Z,99887.00
2018-12-07T09:46:48.012Z,99888.00
2018-12-07T09:49:17.542Z,99867.00
2018-12-07T09:51:47.202Z,99884.00
2018-12-07T09:54:16.642Z,99856.00
2018-12-07T09:56:46.182Z,99856.00
2018-12-07T09:59:15.694Z,99861.00
2018-12-07T10:01:45.442Z,99857.00
2018-12-07T10:04:15.504Z,99842.00
2018-12-07T10:06:45.012Z,99838.00
2018-12-07T10:09:14.505Z,99840.00
2018-12-07T10:11:43.785Z,99838.00
2018-12-07T10:14:13.349Z,99837.00
2018-12-07T10:16:42.809Z,99826.00
2018-12-07T10:19:12.409Z,99823.00
2018-12-07T10:21:41.779Z,99821.00
2018-12-07T10:24:11.012Z,99811.00
2018-12-07T10:26:40.740Z,99800.00
2018-12-07T10:29:10.376Z,99808.00
2018-12-07T10:31:40.065Z,99788.00
2018-12-07T10:34:10.166Z,99791.00
2018-12-07T10:36:39.536Z,99791.00
2018-12-07T10:39:08.931Z,99781.00
2018-12-07T10:41:38.278Z,99777.00
2018-12-07T10:44:07.598Z,99776.00
2018-12-07T10:46:37.177Z,99768.00
2018-12-07T10:49:06.666Z,99759.00
2018-12-07T10:51:36.277Z,99751.00
2018-12-07T10:54:06.353Z,99751.00
2018-12-07T10:56:35.972Z,99733.00
2018-12-07T10:59:05.800Z,99730.00
2018-12-07T11:01:40.632Z,99725.00
2018-12-07T11:04:15.689Z,99721.00
2018-12-07T11:06:52.056Z,99707.00
2018-12-07T11:09:26.343Z,99702.00
2018-12-07T11:12:00.927Z,99697.00
2018-12-07T11:14:36.056Z,99697.00
2018-12-07T11:17:10.901Z,99688.00
2018-12-07T11:19:45.922Z,99683.00
2018-12-07T11:22:20.840Z,99683.00
2018-12-07T11:24:55.314Z,99673.00
2018-12-07T11:27:30.088Z,99676.00
2018-12-07T11:32:11.194Z,99660.00
2018-12-07T11:34:46.452Z,99647.00
2018-12-07T11:37:16.048Z,99629.00
2018-12-07T11:39:45.786Z,99618.00
2018-12-07T11:42:15.401Z,99620.00
2018-12-07T11:44:44.908Z,99615.00
2018-12-07T11:47:14.745Z,99592.00
2018-12-07T11:49:44.136Z,99585.00
2018-12-07T11:52:13.558Z,99587.00
2018-12-07T11:54:43.072Z,99578.00
2018-12-07T11:57:12.500Z,99579.00
2018-12-07T11:59:41.802Z,99567.00
2018-12-07T12:02:11.224Z,99568.00
2018-12-07T12:04:40.728Z,99564.00
2018-12-07T12:07:10.364Z,99560.00
2018-12-07T12:09:39.658Z,99538.00
2018-12-07T12:12:09.198Z,99544.00
2018-12-07T12:14:38.340Z,99514.00
2018-12-07T12:17:07.772Z,99503.00
2018-12-07T12:19:37.170Z,99493.00
2018-12-07T12:22:07.928Z,99496.00
2018-12-07T12:24:37.750Z,99495.00
2018-12-07T12:27:06.944Z,99490.00
2018-12-07T12:29:36.456Z,99478.00
2018-12-07T12:32:05.842Z,99469.00
2018-12-07T12:34:35.333Z,99481.00
2018-12-07T12:37:04.951Z,99468.00
2018-12-07T12:39:34.318Z,99478.00
2018-12-07T12:42:03.763Z,99482.00
2018-12-07T12:49:43.315Z,99471.00
2018-12-07T12:52:12.925Z,99468.00
2018-12-07T12:54:42.452Z,99473.00
2018-12-07T12:57:11.827Z,99465.00
2018-12-07T12:59:41.367Z,99457.00
2018-12-07T13:02:10.705Z,99460.00
2018-12-07T13:04:39.921Z,99450.00
2018-12-07T13:07:09.185Z,99435.00
2018-12-07T13:09:38.715Z,99429.00
2018-12-07T13:12:08.467Z,99426.00
2018-12-07T13:14:37.789Z,99423.00
2018-12-07T13:17:07.081Z,99410.00
2018-12-07T13:19:36.347Z,99407.00
2018-12-07T13:22:05.771Z,99401.00
2018-12-07T13:24:35.877Z,99392.00
2018-12-07T13:27:05.426Z,99398.00
2018-12-07T13:29:34.938Z,99378.00
2018-12-07T13:32:04.637Z,99379.00
2018-12-07T13:34:34.804Z,99380.00
2018-12-07T13:37:04.170Z,99366.00
2018-12-07T13:39:33.354Z,99359.00
2018-12-07T13:42:02.699Z,99368.00
2018-12-07T13:44:32.100Z,99342.00
2018-12-07T13:47:02.148Z,99348.00
2018-12-07T13:49:31.689Z,99339.00
2018-12-07T13:52:01.222Z,99330.00
2018-12-07T13:54:30.856Z,99337.00
2018-12-07T13:57:00.355Z,99320.00
2018-12-07T13:59:29.793Z,99323.00
2018-12-07T14:01:59.264Z,99337.00
2018-12-07T14:04:28.490Z,99313.00
2018-12-07T14:06:58.385Z,99325.00
2018-12-07T14:09:27.976Z,99305.00
2018-12-07T14:11:57.463Z,99321.00
2018-12-07T14:14:27.218Z,99281.00
2018-12-07T14:16:56.932Z,99271.00
2018-12-07T14:19:26.344Z,99280.00
2018-12-07T14:21:55.771Z,99274.00
2018-12-07T14:24:25.796Z,99275.00
2018-12-07T14:26:59.543Z,99272.00
2018-12-07T14:29:26.869Z,99269.00
2018-12-07T14:31:56.449Z,99253.00
2018-12-07T14:34:25.733Z,99246.00
2018-12-07T14:36:55.350Z,99241.00
2018-12-07T14:39:25.004Z,99228.00
2018-12-07T14:41:54.571Z,99211.00
2018-12-07T14:44:26.806Z,99202.00
2018-12-07T14:46:56.800Z,99198.00
2018-12-07T14:49:26.508Z,99214.00
2018-12-07T14:51:55.916Z,99218.00
2018-12-07T14:54:25.234Z,99212.00
2018-12-07T14:56:55.031Z,99201.00
2018-12-07T14:59:24.701Z,99204.00
2018-12-07T15:01:54.210Z,99206.00
2018-12-07T15:04:24.045Z,99199.00
2018-12-07T15:06:53.605Z,99197.00
2018-12-07T15:09:23.113Z,99202.00
2018-12-07T15:11:52.570Z,99190.00
2018-12-07T15:14:22.014Z,99196.00
2018-12-07T15:16:51.410Z,99193.00
2018-12-07T15:19:20.578Z,99198.00
2018-12-07T15:21:49.751Z,99190.00
2018-12-07T15:24:18.985Z,99183.00
2018-12-07T15:26:48.173Z,99170.00
2018-12-07T15:29:17.391Z,99170.00
2018-12-07T15:31:46.495Z,99166.00
2018-12-07T15:34:15.666Z,99160.00
2018-12-07T15:36:44.733Z,99154.00
2018-12-07T15:39:13.914Z,99147.00
2018-12-07T15:41:43.299Z,99145.00
2018-12-07T15:44:12.597Z,99137.00
2018-12-07T15:46:41.817Z,99129.00
2018-12-07T15:49:10.885Z,99119.00
2018-12-07T15:51:40.063Z,99111.00
2018-12-07T15:54:09.320Z,99109.00
2018-12-07T15:56:38.662Z,99108.00
2018-12-07T15:59:07.938Z,99103.00
2018-12-07T16:01:37.193Z,99090.00
2018-12-07T16:04:06.341Z,99089.00
2018-12-07T16:06:35.558Z,99092.00
2018-12-07T16:09:08.359Z,99083.00
2018-12-07T16:11:39.122Z,99071.00
2018-12-07T16:14:08.925Z,99076.00
2018-12-07T16:16:38.292Z,99072.00
2018-12-07T16:19:07.706Z,99061.00
2018-12-07T16:21:37.361Z,99065.00
2018-12-07T16:24:06.627Z,99066.00
2018-12-07T16:26:35.866Z,99055.00
2018-12-07T16:29:06.805Z,99053.00
2018-12-07T16:31:36.235Z,99053.00
2018-12-07T16:34:05.454Z,99034.00
2018-12-07T16:36:34.589Z,99065.00
2018-12-07T16:39:05.949Z,99070.00
2018-12-07T16:41:35.474Z,99055.00
2018-12-07T16:44:04.743Z,99049.00
2018-12-07T16:46:34.170Z,99047.00
2018-12-07T16:49:04.015Z,99034.00
2018-12-07T16:51:33.396Z,99029.00
2018-12-07T16:54:02.731Z,99019.00
2018-12-07T16:56:32.235Z,99011.00
2018-12-07T16:59:01.690Z,99013.00
2018-12-07T17:01:31.072Z,99008.00
2018-12-07T17:04:00.574Z,99002.00
2018-12-07T17:06:29.793Z,99001.00
2018-12-07T17:08:59.144Z,98984.00
2018-12-07T17:11:28.784Z,98991.00
2018-12-07T17:13:58.181Z,98990.00
2018-12-07T17:16:27.730Z,98983.00
2018-12-07T17:18:57.216Z,98981.00
2018-12-07T17:21:26.427Z,98976.00
2018-12-07T17:23:55.510Z,98966.00
2018-12-07T17:26:26.522Z,98951.00
2018-12-07T17:28:55.962Z,98959.00
2018-12-07T17:31:25.123Z,98943.00
2018-12-07T17:33:55.132Z,98940.00
2018-12-07T17:36:24.405Z,98931.00
2018-12-07T17:38:53.672Z,98935.00
2018-12-07T17:41:22.863Z,98910.00
2018-12-07T17:43:52.201Z,98921.00
2018-12-07T17:46:21.471Z,98899.00
2018-12-07T17:48:50.855Z,98906.00
2018-12-07T17:51:20.832Z,98904.00
2018-12-07T17:53:50.290Z,98892.00
2018-12-07T17:56:19.832Z,98884.00
2018-12-07T17:58:49.327Z,98882.00
2018-12-07T18:01:18.640Z,98897.00
2018-12-07T18:03:47.803Z,98895.00
2018-12-07T18:06:17.051Z,98881.00
2018-12-07T18:08:46.321Z,98875.00
2018-12-07T18:11:15.788Z,98870.00
2018-12-07T18:13:45.117Z,98884.00
2018-12-07T18:16:14.360Z,98859.00
2018-12-07T18:18:43.489Z,98851.00
2018-12-07T18:21:12.923Z,98847.00
2018-12-07T18:23:48.679Z,98852.00
2018-12-07T18:26:17.937Z,98850.00
2018-12-07T18:28:47.650Z,98848.00
2018-12-07T18:31:16.963Z,98852.00
2018-12-07T18:33:46.418Z,98846.00
2018-12-07T18:36:16.086Z,98849.00
2018-12-07T18:38:45.314Z,98838.00
2018-12-07T18:41:14.594Z,98847.00
2018-12-07T18:43:44.174Z,98831.00
2018-12-07T18:46:13.818Z,98845.00
2018-12-07T18:48:43.248Z,98824.00
2018-12-07T18:51:12.635Z,98813.00
2018-12-07T18:53:42.266Z,98813.00
2018-12-07T18:56:11.816Z,98814.00
2018-12-07T18:58:41.245Z,98809.00
2018-12-07T19:01:10.594Z,98806.00
2018-12-07T19:03:39.915Z,98810.00
2018-12-07T19:06:09.195Z,98810.00
2018-12-07T19:08:38.522Z,98792.00
2018-12-07T19:11:08.223Z,98792.00
2018-12-07T19:13:37.503Z,98803.00
2018-12-07T19:16:06.735Z,98787.00
2018-12-07T19:18:36.092Z,98787.00
2018-12-07T19:21:05.601Z,98782.00
2018-12-07T19:23:34.947Z,98783.00
2018-12-07T19:26:04.340Z,98783.00
2018-12-07T19:28:33.649Z,98776.00
2018-12-07T19:31:03.033Z,98776.00
2018-12-07T19:33:32.250Z,98780.00
2018-12-07T19:36:01.461Z,98765.00
2018-12-07T19:38:30.797Z,98757.00
2018-12-07T19:41:00.561Z,98772.00
2018-12-07T19:43:30.297Z,98756.00
2018-12-07T19:45:59.737Z,98761.00
2018-12-07T19:48:29.134Z,98756.00
2018-12-07T19:51:00.608Z,98757.00
2018-12-07T19:53:29.889Z,98761.00
2018-12-07T19:55:59.047Z,98756.00
2018-12-07T19:58:28.398Z,98748.00
2018-12-07T20:00:58.098Z,98749.00
2018-12-07T20:03:27.310Z,98745.00
2018-12-07T20:05:56.768Z,98752.00
2018-12-07T20:08:26.053Z,98763.00
2018-12-07T20:10:55.439Z,98766.00
2018-12-07T20:13:25.105Z,98777.00
2018-12-07T20:15:54.695Z,98784.00
2018-12-07T20:18:24.181Z,98783.00
2018-12-07T20:20:53.651Z,98842.00
2018-12-07T20:23:22.866Z,98869.00
2018-12-07T20:25:52.087Z,98871.00
2018-12-07T20:28:21.365Z,98885.00
2018-12-07T20:30:51.044Z,98890.00
2018-12-07T20:33:20.767Z,98896.00
2018-12-07T20:35:50.217Z,98907.00
2018-12-07T20:38:19.833Z,98898.00
2018-12-07T20:40:49.257Z,98920.00
2018-12-07T20:43:18.846Z,98909.00
2018-12-07T20:45:48.034Z,98918.00
2018-12-07T20:48:18.845Z,98930.00
2018-12-07T20:50:48.389Z,98927.00
2018-12-07T20:53:18.962Z,98939.00
2018-12-07T20:55:48.306Z,98942.00
2018-12-07T20:58:17.821Z,98944.00
2018-12-07T21:00:47.161Z,98947.00
2018-12-07T21:03:16.756Z,98962.00
2018-12-07T21:08:05.346Z,98975.00
2018-12-07T21:11:12.873Z,98995.00
2018-12-07T21:14:00.951Z,99016.00
2018-12-07T21:17:03.125Z,99019.00
2018-12-07T21:19:33.823Z,99019.00
2018-12-07T21:22:03.810Z,99015.00
2018-12-07T21:24:33.344Z,99030.00
2018-12-07T21:27:02.891Z,99017.00
2018-12-07T21:29:32.204Z,99035.00
2018-12-07T21:32:03.253Z,99054.00
2018-12-07T21:34:47.505Z,99042.00
2018-12-07T21:37:17.097Z,99067.00
2018-12-07T21:39:52.880Z,99060.00
2018-12-07T21:42:22.340Z,99070.00
2018-12-07T21:44:51.893Z,99094.00
2018-12-07T21:50:23.200Z,99088.00
2018-12-07T21:52:54.483Z,99102.00
2018-12-07T21:55:26.064Z,99104.00
2018-12-07T21:57:57.180Z,99112.00
2018-12-07T22:00:27.129Z,99110.00
2018-12-07T22:03:01.899Z,99120.00
2018-12-07T22:05:29.606Z,99121.00
2018-12-07T22:08:00.710Z,99118.00
2018-12-07T22:10:30.399Z,99133.00
2018-12-07T22:13:00.872Z,99144.00
2018-12-07T22:15:30.952Z,99155.00
2018-12-07T22:18:01.436Z,99163.00
2018-12-07T22:20:32.140Z,99178.00
2018-12-07T22:23:03.116Z,99174.00
2018-12-07T22:25:33.754Z,99173.00
2018-12-07T22:28:04.595Z,99173.00
2018-12-07T22:30:35.696Z,99186.00
2018-12-07T22:33:05.308Z,99203.00
2018-12-07T22:35:35.119Z,99197.00
2018-12-07T22:38:04.813Z,99208.00
2018-12-07T22:40:34.550Z,99213.00
2018-12-07T22:43:03.969Z,99216.00
2018-12-07T22:45:33.921Z,99225.00
2018-12-07T22:48:03.740Z,99222.00
2018-12-07T22:50:33.387Z,99230.00
2018-12-07T22:53:02.738Z,99232.00
2018-12-07T22:55:31.966Z,99229.00
2018-12-07T22:58:01.091Z,99261.00
2018-12-07T23:00:30.794Z,99246.00
2018-12-07T23:02:59.891Z,99254.00
2018-12-07T23:05:29.055Z,99271.00
2018-12-07T23:07:58.114Z,99266.00
2018-12-07T23:10:27.805Z,99282.00
2018-12-07T23:12:57.027Z,99277.00
2018-12-07T23:15:26.147Z,99273.00
2018-12-07T23:17:55.386Z,99271.00
2018-12-07T23:20:24.728Z,99273.00
2018-12-07T23:22:54.045Z,99257.00
2018-12-07T23:25:23.487Z,99274.00
2018-12-07T23:27:52.667Z,99273.00
2018-12-07T23:30:22.249Z,99285.00
2018-12-07T23:32:51.269Z,99273.00
2018-12-07T23:35:21.440Z,99280.00
2018-12-07T23:37:50.655Z,99285.00
2018-12-07T23:40:20.204Z,99296.00
2018-12-07T23:42:51.701Z,99287.00
2018-12-07T23:45:20.808Z,99290.00
2018-12-07T23:47:49.931Z,99295.00
2018-12-07T23:50:19.464Z,99305.00
2018-12-07T23:52:49.480Z,99320.00
2018-12-07T23:55:18.972Z,99308.00
2018-12-07T23:57:48.224Z,99311.00
